sensor_id;sensor_type;location;lat;lon;timestamp;temperature;humidity
18575;DHT22;9417;16.484;102.872;2023-03-16T00:00:11;22.90;86.70
18575;DHT22;9417;16.484;102.872;2023-03-16T00:02:18;23.00;86.50
18575;DHT22;9417;16.484;102.872;2023-03-16T00:04:25;23.00;86.20
18575;DHT22;9417;16.484;102.872;2023-03-16T00:06:34;23.00;86.40
18575;DHT22;9417;16.484;102.872;2023-03-16T00:08:42;23.10;86.40
18575;DHT22;9417;16.484;102.872;2023-03-16T00:10:49;23.10;86.20
18575;DHT22;9417;16.484;102.872;2023-03-16T00:12:57;23.20;86.00
18575;DHT22;9417;16.484;102.872;2023-03-16T00:15:06;23.30;85.80
18575;DHT22;9417;16.484;102.872;2023-03-16T00:17:15;23.30;85.70
18575;DHT22;9417;16.484;102.872;2023-03-16T00:19:24;23.40;85.60
18575;DHT22;9417;16.484;102.872;2023-03-16T00:21:31;23.40;85.60
18575;DHT22;9417;16.484;102.872;2023-03-16T00:23:40;23.40;85.50
18575;DHT22;9417;16.484;102.872;2023-03-16T00:25:47;23.50;85.30
18575;DHT22;9417;16.484;102.872;2023-03-16T00:27:57;23.50;85.10
18575;DHT22;9417;16.484;102.872;2023-03-16T00:30:09;23.60;84.80
18575;DHT22;9417;16.484;102.872;2023-03-16T00:32:17;23.60;84.50
18575;DHT22;9417;16.484;102.872;2023-03-16T00:34:24;23.70;84.60
18575;DHT22;9417;16.484;102.872;2023-03-16T00:36:33;23.70;84.30
18575;DHT22;9417;16.484;102.872;2023-03-16T00:38:43;23.70;83.90
18575;DHT22;9417;16.484;102.872;2023-03-16T00:40:51;23.80;83.50
18575;DHT22;9417;16.484;102.872;2023-03-16T00:42:59;23.90;83.30
18575;DHT22;9417;16.484;102.872;2023-03-16T00:45:07;23.90;83.10
18575;DHT22;9417;16.484;102.872;2023-03-16T00:47:15;23.90;82.90
18575;DHT22;9417;16.484;102.872;2023-03-16T00:49:23;24.00;82.80
18575;DHT22;9417;16.484;102.872;2023-03-16T00:51:30;24.10;82.50
18575;DHT22;9417;16.484;102.872;2023-03-16T00:53:37;24.10;82.20
18575;DHT22;9417;16.484;102.872;2023-03-16T00:55:46;24.10;82.00
18575;DHT22;9417;16.484;102.872;2023-03-16T00:57:53;24.10;81.70
18575;DHT22;9417;16.484;102.872;2023-03-16T01:00:01;24.20;81.40
18575;DHT22;9417;16.484;102.872;2023-03-16T01:02:16;24.20;81.10
18575;DHT22;9417;16.484;102.872;2023-03-16T01:04:27;24.30;80.80
18575;DHT22;9417;16.484;102.872;2023-03-16T01:06:35;24.30;80.60
18575;DHT22;9417;16.484;102.872;2023-03-16T01:08:43;24.30;80.40
18575;DHT22;9417;16.484;102.872;2023-03-16T01:10:52;24.40;80.60
18575;DHT22;9417;16.484;102.872;2023-03-16T01:12:59;24.40;80.10
18575;DHT22;9417;16.484;102.872;2023-03-16T01:15:08;24.50;79.80
18575;DHT22;9417;16.484;102.872;2023-03-16T01:17:16;24.60;79.50
18575;DHT22;9417;16.484;102.872;2023-03-16T01:19:25;24.60;79.30
18575;DHT22;9417;16.484;102.872;2023-03-16T01:21:32;24.70;79.10
18575;DHT22;9417;16.484;102.872;2023-03-16T01:23:41;24.70;79.00
18575;DHT22;9417;16.484;102.872;2023-03-16T01:25:51;24.80;78.90
18575;DHT22;9417;16.484;102.872;2023-03-16T01:27:59;24.90;78.80
18575;DHT22;9417;16.484;102.872;2023-03-16T01:30:08;24.90;78.40
18575;DHT22;9417;16.484;102.872;2023-03-16T01:32:15;24.90;78.00
18575;DHT22;9417;16.484;102.872;2023-03-16T01:34:23;25.00;78.20
18575;DHT22;9417;16.484;102.872;2023-03-16T01:36:31;25.00;78.10
18575;DHT22;9417;16.484;102.872;2023-03-16T01:38:40;25.10;78.20
18575;DHT22;9417;16.484;102.872;2023-03-16T01:40:48;25.20;78.00
18575;DHT22;9417;16.484;102.872;2023-03-16T01:43:02;25.20;77.70
18575;DHT22;9417;16.484;102.872;2023-03-16T01:47:59;25.40;77.00
18575;DHT22;9417;16.484;102.872;2023-03-16T01:50:06;25.40;77.00
18575;DHT22;9417;16.484;102.872;2023-03-16T01:52:20;25.50;76.80
18575;DHT22;9417;16.484;102.872;2023-03-16T01:54:30;25.60;76.50
18575;DHT22;9417;16.484;102.872;2023-03-16T01:56:42;25.60;75.90
18575;DHT22;9417;16.484;102.872;2023-03-16T01:58:53;25.70;75.50
18575;DHT22;9417;16.484;102.872;2023-03-16T02:01:02;25.70;74.30
18575;DHT22;9417;16.484;102.872;2023-03-16T02:03:11;25.80;74.50
18575;DHT22;9417;16.484;102.872;2023-03-16T02:05:26;25.80;74.20
18575;DHT22;9417;16.484;102.872;2023-03-16T02:07:41;25.80;73.70
18575;DHT22;9417;16.484;102.872;2023-03-16T02:09:52;25.90;73.20
18575;DHT22;9417;16.484;102.872;2023-03-16T02:11:59;25.90;72.90
18575;DHT22;9417;16.484;102.872;2023-03-16T02:14:12;25.90;72.80
18575;DHT22;9417;16.484;102.872;2023-03-16T02:16:19;26.00;72.60
18575;DHT22;9417;16.484;102.872;2023-03-16T02:18:27;26.00;72.30
18575;DHT22;9417;16.484;102.872;2023-03-16T02:20:39;26.10;72.00
18575;DHT22;9417;16.484;102.872;2023-03-16T02:22:49;26.20;71.90
18575;DHT22;9417;16.484;102.872;2023-03-16T02:24:59;26.30;71.30
18575;DHT22;9417;16.484;102.872;2023-03-16T02:27:08;26.40;71.40
18575;DHT22;9417;16.484;102.872;2023-03-16T02:29:29;26.40;71.50
18575;DHT22;9417;16.484;102.872;2023-03-16T02:31:39;26.60;71.00
18575;DHT22;9417;16.484;102.872;2023-03-16T02:33:47;26.60;70.70
18575;DHT22;9417;16.484;102.872;2023-03-16T02:35:56;26.70;70.00
18575;DHT22;9417;16.484;102.872;2023-03-16T02:38:04;26.80;70.10
18575;DHT22;9417;16.484;102.872;2023-03-16T02:40:21;26.90;69.80
18575;DHT22;9417;16.484;102.872;2023-03-16T02:42:31;26.90;69.40
18575;DHT22;9417;16.484;102.872;2023-03-16T02:44:38;27.10;69.00
18575;DHT22;9417;16.484;102.872;2023-03-16T02:46:50;27.10;68.20
18575;DHT22;9417;16.484;102.872;2023-03-16T02:49:01;27.10;67.80
18575;DHT22;9417;16.484;102.872;2023-03-16T02:51:09;27.20;67.30
18575;DHT22;9417;16.484;102.872;2023-03-16T02:53:17;27.30;67.10
18575;DHT22;9417;16.484;102.872;2023-03-16T02:55:24;27.30;67.60
18575;DHT22;9417;16.484;102.872;2023-03-16T02:57:31;27.40;67.50
18575;DHT22;9417;16.484;102.872;2023-03-16T02:59:44;27.50;67.30
18575;DHT22;9417;16.484;102.872;2023-03-16T03:01:53;27.60;67.00
18575;DHT22;9417;16.484;102.872;2023-03-16T03:04:00;27.70;66.20
18575;DHT22;9417;16.484;102.872;2023-03-16T03:06:07;27.70;66.50
18575;DHT22;9417;16.484;102.872;2023-03-16T03:08:15;27.80;66.20
18575;DHT22;9417;16.484;102.872;2023-03-16T03:10:24;27.80;66.00
18575;DHT22;9417;16.484;102.872;2023-03-16T03:12:33;27.90;66.20
18575;DHT22;9417;16.484;102.872;2023-03-16T03:14:43;28.00;65.00
18575;DHT22;9417;16.484;102.872;2023-03-16T03:16:55;28.10;64.70
18575;DHT22;9417;16.484;102.872;2023-03-16T03:19:02;28.20;63.00
18575;DHT22;9417;16.484;102.872;2023-03-16T03:21:12;28.10;63.70
18575;DHT22;9417;16.484;102.872;2023-03-16T03:23:20;28.20;63.50
18575;DHT22;9417;16.484;102.872;2023-03-16T03:25:27;28.30;63.90
18575;DHT22;9417;16.484;102.872;2023-03-16T03:27:39;28.40;63.40
18575;DHT22;9417;16.484;102.872;2023-03-16T03:29:49;28.40;63.00
18575;DHT22;9417;16.484;102.872;2023-03-16T03:31:58;28.60;62.10
18575;DHT22;9417;16.484;102.872;2023-03-16T03:34:06;28.60;62.30
18575;DHT22;9417;16.484;102.872;2023-03-16T03:36:13;28.70;62.20
18575;DHT22;9417;16.484;102.872;2023-03-16T03:38:21;28.90;62.30
18575;DHT22;9417;16.484;102.872;2023-03-16T03:40:30;28.90;61.80
18575;DHT22;9417;16.484;102.872;2023-03-16T03:42:38;29.00;61.90
18575;DHT22;9417;16.484;102.872;2023-03-16T03:44:46;29.10;61.30
18575;DHT22;9417;16.484;102.872;2023-03-16T03:46:53;29.20;61.40
18575;DHT22;9417;16.484;102.872;2023-03-16T03:49:03;29.20;61.10
18575;DHT22;9417;16.484;102.872;2023-03-16T03:51:11;29.30;60.70
18575;DHT22;9417;16.484;102.872;2023-03-16T03:53:21;29.30;60.80
18575;DHT22;9417;16.484;102.872;2023-03-16T03:55:45;29.40;60.70
18575;DHT22;9417;16.484;102.872;2023-03-16T03:57:53;29.50;60.70
18575;DHT22;9417;16.484;102.872;2023-03-16T04:00:00;29.60;60.80
18575;DHT22;9417;16.484;102.872;2023-03-16T04:02:19;29.70;60.40
18575;DHT22;9417;16.484;102.872;2023-03-16T04:04:31;29.70;59.20
18575;DHT22;9417;16.484;102.872;2023-03-16T04:06:38;29.80;58.70
18575;DHT22;9417;16.484;102.872;2023-03-16T04:08:45;29.90;58.90
18575;DHT22;9417;16.484;102.872;2023-03-16T04:10:56;29.90;59.40
18575;DHT22;9417;16.484;102.872;2023-03-16T04:13:03;30.00;59.00
18575;DHT22;9417;16.484;102.872;2023-03-16T04:15:11;30.10;58.60
18575;DHT22;9417;16.484;102.872;2023-03-16T04:17:36;30.20;58.80
18575;DHT22;9417;16.484;102.872;2023-03-16T04:19:47;30.20;58.20
18575;DHT22;9417;16.484;102.872;2023-03-16T04:21:55;30.30;58.20
18575;DHT22;9417;16.484;102.872;2023-03-16T04:24:02;30.40;57.90
18575;DHT22;9417;16.484;102.872;2023-03-16T04:26:11;30.40;57.00
18575;DHT22;9417;16.484;102.872;2023-03-16T04:28:20;30.50;57.30
18575;DHT22;9417;16.484;102.872;2023-03-16T04:30:30;30.60;57.10
18575;DHT22;9417;16.484;102.872;2023-03-16T04:32:51;30.60;57.00
18575;DHT22;9417;16.484;102.872;2023-03-16T04:35:01;30.70;55.70
18575;DHT22;9417;16.484;102.872;2023-03-16T04:37:22;30.50;56.60
18575;DHT22;9417;16.484;102.872;2023-03-16T04:39:29;30.50;57.80
18575;DHT22;9417;16.484;102.872;2023-03-16T04:41:36;30.60;57.70
18575;DHT22;9417;16.484;102.872;2023-03-16T04:43:52;30.70;57.20
18575;DHT22;9417;16.484;102.872;2023-03-16T04:46:00;30.80;56.80
18575;DHT22;9417;16.484;102.872;2023-03-16T04:48:09;30.90;56.40
18575;DHT22;9417;16.484;102.872;2023-03-16T04:50:18;30.90;55.60
18575;DHT22;9417;16.484;102.872;2023-03-16T04:52:28;30.80;55.10
18575;DHT22;9417;16.484;102.872;2023-03-16T04:54:37;30.90;56.30
18575;DHT22;9417;16.484;102.872;2023-03-16T04:56:45;30.90;56.30
18575;DHT22;9417;16.484;102.872;2023-03-16T04:59:05;31.00;56.00
18575;DHT22;9417;16.484;102.872;2023-03-16T05:01:20;30.90;56.90
18575;DHT22;9417;16.484;102.872;2023-03-16T05:03:31;30.90;57.00
18575;DHT22;9417;16.484;102.872;2023-03-16T05:05:41;31.00;56.60
18575;DHT22;9417;16.484;102.872;2023-03-16T05:07:50;31.10;56.90
18575;DHT22;9417;16.484;102.872;2023-03-16T05:09:58;31.30;56.20
18575;DHT22;9417;16.484;102.872;2023-03-16T05:12:06;31.40;55.60
18575;DHT22;9417;16.484;102.872;2023-03-16T05:14:14;31.50;55.40
18575;DHT22;9417;16.484;102.872;2023-03-16T05:16:33;31.60;54.70
18575;DHT22;9417;16.484;102.872;2023-03-16T05:18:40;31.70;54.70
18575;DHT22;9417;16.484;102.872;2023-03-16T05:20:51;31.70;54.80
18575;DHT22;9417;16.484;102.872;2023-03-16T05:23:05;31.80;55.00
18575;DHT22;9417;16.484;102.872;2023-03-16T05:25:20;31.90;54.50
18575;DHT22;9417;16.484;102.872;2023-03-16T05:27:30;32.00;54.90
18575;DHT22;9417;16.484;102.872;2023-03-16T05:29:40;31.90;53.80
18575;DHT22;9417;16.484;102.872;2023-03-16T05:31:51;32.00;53.80
18575;DHT22;9417;16.484;102.872;2023-03-16T05:34:00;31.90;54.00
18575;DHT22;9417;16.484;102.872;2023-03-16T05:36:10;32.00;53.80
18575;DHT22;9417;16.484;102.872;2023-03-16T05:38:21;32.00;53.20
18575;DHT22;9417;16.484;102.872;2023-03-16T05:40:30;32.00;53.90
18575;DHT22;9417;16.484;102.872;2023-03-16T05:42:49;32.00;54.00
18575;DHT22;9417;16.484;102.872;2023-03-16T05:44:57;32.10;54.20
18575;DHT22;9417;16.484;102.872;2023-03-16T05:47:18;32.10;53.80
18575;DHT22;9417;16.484;102.872;2023-03-16T05:49:30;32.20;53.70
18575;DHT22;9417;16.484;102.872;2023-03-16T05:51:44;32.30;53.80
18575;DHT22;9417;16.484;102.872;2023-03-16T05:53:52;32.40;54.10
18575;DHT22;9417;16.484;102.872;2023-03-16T05:56:18;32.40;54.00
18575;DHT22;9417;16.484;102.872;2023-03-16T05:58:25;32.50;54.00
18575;DHT22;9417;16.484;102.872;2023-03-16T06:00:32;32.60;54.00
18575;DHT22;9417;16.484;102.872;2023-03-16T06:02:52;32.60;52.90
18575;DHT22;9417;16.484;102.872;2023-03-16T06:05:05;32.60;53.40
18575;DHT22;9417;16.484;102.872;2023-03-16T06:07:18;32.60;53.50
18575;DHT22;9417;16.484;102.872;2023-03-16T06:09:28;32.70;53.20
18575;DHT22;9417;16.484;102.872;2023-03-16T06:11:38;32.70;52.60
18575;DHT22;9417;16.484;102.872;2023-03-16T06:13:45;32.70;53.40
18575;DHT22;9417;16.484;102.872;2023-03-16T06:15:53;32.70;53.60
18575;DHT22;9417;16.484;102.872;2023-03-16T06:18:01;32.80;53.40
18575;DHT22;9417;16.484;102.872;2023-03-16T06:20:10;32.80;52.90
18575;DHT22;9417;16.484;102.872;2023-03-16T06:22:20;32.90;52.90
18575;DHT22;9417;16.484;102.872;2023-03-16T06:24:28;33.00;53.00
18575;DHT22;9417;16.484;102.872;2023-03-16T06:26:36;33.00;52.90
18575;DHT22;9417;16.484;102.872;2023-03-16T06:28:47;33.10;52.80
18575;DHT22;9417;16.484;102.872;2023-03-16T06:30:55;33.10;52.60
18575;DHT22;9417;16.484;102.872;2023-03-16T06:33:07;33.20;52.30
18575;DHT22;9417;16.484;102.872;2023-03-16T06:35:14;33.20;51.60
18575;DHT22;9417;16.484;102.872;2023-03-16T06:37:39;33.20;51.60
18575;DHT22;9417;16.484;102.872;2023-03-16T06:40:07;33.30;51.30
18575;DHT22;9417;16.484;102.872;2023-03-16T06:42:15;33.30;51.20
18575;DHT22;9417;16.484;102.872;2023-03-16T06:44:22;33.30;51.10
18575;DHT22;9417;16.484;102.872;2023-03-16T06:46:38;33.30;51.30
18575;DHT22;9417;16.484;102.872;2023-03-16T06:48:46;33.30;50.90
18575;DHT22;9417;16.484;102.872;2023-03-16T06:50:54;33.20;51.90
18575;DHT22;9417;16.484;102.872;2023-03-16T06:53:04;33.20;52.40
18575;DHT22;9417;16.484;102.872;2023-03-16T06:55:12;33.20;51.80
18575;DHT22;9417;16.484;102.872;2023-03-16T06:57:21;33.30;51.50
18575;DHT22;9417;16.484;102.872;2023-03-16T06:59:29;33.30;51.30
18575;DHT22;9417;16.484;102.872;2023-03-16T07:01:36;33.40;51.40
18575;DHT22;9417;16.484;102.872;2023-03-16T07:03:44;33.40;50.70
18575;DHT22;9417;16.484;102.872;2023-03-16T07:05:56;33.40;50.40
18575;DHT22;9417;16.484;102.872;2023-03-16T07:08:05;33.40;50.20
18575;DHT22;9417;16.484;102.872;2023-03-16T07:10:14;33.50;49.90
18575;DHT22;9417;16.484;102.872;2023-03-16T07:12:21;33.50;49.90
18575;DHT22;9417;16.484;102.872;2023-03-16T07:14:29;33.50;50.50
18575;DHT22;9417;16.484;102.872;2023-03-16T07:16:36;33.50;50.40
18575;DHT22;9417;16.484;102.872;2023-03-16T07:18:45;33.60;49.80
18575;DHT22;9417;16.484;102.872;2023-03-16T07:20:54;33.60;49.00
18575;DHT22;9417;16.484;102.872;2023-03-16T07:23:03;33.50;48.00
18575;DHT22;9417;16.484;102.872;2023-03-16T07:25:11;33.40;49.00
18575;DHT22;9417;16.484;102.872;2023-03-16T07:27:24;33.40;49.00
18575;DHT22;9417;16.484;102.872;2023-03-16T07:29:33;33.40;48.90
18575;DHT22;9417;16.484;102.872;2023-03-16T07:31:40;33.50;48.80
18575;DHT22;9417;16.484;102.872;2023-03-16T07:33:53;33.50;49.00
18575;DHT22;9417;16.484;102.872;2023-03-16T07:36:09;33.50;48.90
18575;DHT22;9417;16.484;102.872;2023-03-16T07:38:23;33.50;48.50
18575;DHT22;9417;16.484;102.872;2023-03-16T07:40:31;33.50;48.40
18575;DHT22;9417;16.484;102.872;2023-03-16T07:42:46;33.50;48.60
18575;DHT22;9417;16.484;102.872;2023-03-16T07:45:09;33.50;48.70
18575;DHT22;9417;16.484;102.872;2023-03-16T07:47:19;33.40;49.10
18575;DHT22;9417;16.484;102.872;2023-03-16T07:49:32;33.30;49.20
18575;DHT22;9417;16.484;102.872;2023-03-16T07:51:40;33.20;48.50
18575;DHT22;9417;16.484;102.872;2023-03-16T07:53:49;33.20;49.40
18575;DHT22;9417;16.484;102.872;2023-03-16T07:56:03;33.20;49.10
18575;DHT22;9417;16.484;102.872;2023-03-16T07:58:13;33.30;48.60
18575;DHT22;9417;16.484;102.872;2023-03-16T08:00:23;33.30;48.60
18575;DHT22;9417;16.484;102.872;2023-03-16T08:02:30;33.40;48.60
18575;DHT22;9417;16.484;102.872;2023-03-16T08:04:38;33.40;48.50
18575;DHT22;9417;16.484;102.872;2023-03-16T08:06:48;33.40;48.40
18575;DHT22;9417;16.484;102.872;2023-03-16T08:09:01;33.40;48.40
18575;DHT22;9417;16.484;102.872;2023-03-16T08:11:11;33.40;48.50
18575;DHT22;9417;16.484;102.872;2023-03-16T08:13:26;33.40;48.40
18575;DHT22;9417;16.484;102.872;2023-03-16T08:15:34;33.40;48.60
18575;DHT22;9417;16.484;102.872;2023-03-16T08:17:47;33.40;48.30
18575;DHT22;9417;16.484;102.872;2023-03-16T08:19:59;33.40;48.00
18575;DHT22;9417;16.484;102.872;2023-03-16T08:22:06;33.50;47.80
18575;DHT22;9417;16.484;102.872;2023-03-16T08:24:18;33.50;47.60
18575;DHT22;9417;16.484;102.872;2023-03-16T08:26:26;33.50;45.70
18575;DHT22;9417;16.484;102.872;2023-03-16T08:28:34;33.40;47.30
18575;DHT22;9417;16.484;102.872;2023-03-16T08:30:45;33.40;47.50
18575;DHT22;9417;16.484;102.872;2023-03-16T08:33:04;33.50;47.30
18575;DHT22;9417;16.484;102.872;2023-03-16T08:35:13;33.40;47.20
18575;DHT22;9417;16.484;102.872;2023-03-16T08:37:22;33.50;47.10
18575;DHT22;9417;16.484;102.872;2023-03-16T08:39:32;33.40;47.10
18575;DHT22;9417;16.484;102.872;2023-03-16T08:41:44;33.40;47.40
18575;DHT22;9417;16.484;102.872;2023-03-16T08:43:59;33.40;47.70
18575;DHT22;9417;16.484;102.872;2023-03-16T08:46:08;33.40;47.90
18575;DHT22;9417;16.484;102.872;2023-03-16T08:48:27;33.40;47.70
18575;DHT22;9417;16.484;102.872;2023-03-16T08:50:34;33.40;47.80
18575;DHT22;9417;16.484;102.872;2023-03-16T08:52:41;33.40;47.90
18575;DHT22;9417;16.484;102.872;2023-03-16T08:54:50;33.40;48.10
18575;DHT22;9417;16.484;102.872;2023-03-16T08:57:06;33.30;48.00
18575;DHT22;9417;16.484;102.872;2023-03-16T08:59:14;33.20;48.00
18575;DHT22;9417;16.484;102.872;2023-03-16T09:01:32;33.20;47.80
18575;DHT22;9417;16.484;102.872;2023-03-16T09:03:40;33.10;47.00
18575;DHT22;9417;16.484;102.872;2023-03-16T09:05:49;33.10;47.40
18575;DHT22;9417;16.484;102.872;2023-03-16T09:07:56;33.10;47.50
18575;DHT22;9417;16.484;102.872;2023-03-16T09:10:06;33.10;47.50
18575;DHT22;9417;16.484;102.872;2023-03-16T09:12:15;33.10;47.20
18575;DHT22;9417;16.484;102.872;2023-03-16T09:14:24;33.10;47.00
18575;DHT22;9417;16.484;102.872;2023-03-16T09:16:31;33.10;46.90
18575;DHT22;9417;16.484;102.872;2023-03-16T09:18:39;33.10;46.70
18575;DHT22;9417;16.484;102.872;2023-03-16T09:20:46;33.10;46.60
18575;DHT22;9417;16.484;102.872;2023-03-16T09:22:54;33.10;46.50
18575;DHT22;9417;16.484;102.872;2023-03-16T09:25:01;33.10;46.30
18575;DHT22;9417;16.484;102.872;2023-03-16T09:27:10;32.90;45.90
18575;DHT22;9417;16.484;102.872;2023-03-16T09:29:19;32.80;44.90
18575;DHT22;9417;16.484;102.872;2023-03-16T09:31:26;32.70;45.60
18575;DHT22;9417;16.484;102.872;2023-03-16T09:33:33;32.70;46.20
18575;DHT22;9417;16.484;102.872;2023-03-16T09:35:40;32.70;46.00
18575;DHT22;9417;16.484;102.872;2023-03-16T09:37:48;32.60;45.40
18575;DHT22;9417;16.484;102.872;2023-03-16T09:40:21;32.70;45.90
18575;DHT22;9417;16.484;102.872;2023-03-16T09:42:35;32.60;46.60
18575;DHT22;9417;16.484;102.872;2023-03-16T09:44:50;32.60;46.20
18575;DHT22;9417;16.484;102.872;2023-03-16T09:47:02;32.50;46.50
18575;DHT22;9417;16.484;102.872;2023-03-16T09:49:10;32.50;47.00
18575;DHT22;9417;16.484;102.872;2023-03-16T09:51:25;32.50;47.40
18575;DHT22;9417;16.484;102.872;2023-03-16T09:53:37;32.50;47.40
18575;DHT22;9417;16.484;102.872;2023-03-16T09:55:51;32.50;47.10
18575;DHT22;9417;16.484;102.872;2023-03-16T09:57:59;32.40;47.10
18575;DHT22;9417;16.484;102.872;2023-03-16T10:00:16;32.40;46.80
18575;DHT22;9417;16.484;102.872;2023-03-16T10:02:42;32.40;46.80
18575;DHT22;9417;16.484;102.872;2023-03-16T10:04:55;32.30;46.70
18575;DHT22;9417;16.484;102.872;2023-03-16T10:07:16;32.30;46.80
18575;DHT22;9417;16.484;102.872;2023-03-16T10:09:31;32.30;46.30
18575;DHT22;9417;16.484;102.872;2023-03-16T10:11:40;32.20;46.50
18575;DHT22;9417;16.484;102.872;2023-03-16T10:13:52;32.20;46.70
18575;DHT22;9417;16.484;102.872;2023-03-16T10:16:04;32.20;46.30
18575;DHT22;9417;16.484;102.872;2023-03-16T10:18:16;32.20;46.60
18575;DHT22;9417;16.484;102.872;2023-03-16T10:20:26;32.20;46.80
18575;DHT22;9417;16.484;102.872;2023-03-16T10:22:41;32.10;46.80
18575;DHT22;9417;16.484;102.872;2023-03-16T10:25:06;32.10;47.30
18575;DHT22;9417;16.484;102.872;2023-03-16T10:27:22;32.10;47.30
18575;DHT22;9417;16.484;102.872;2023-03-16T10:29:34;32.00;48.10
18575;DHT22;9417;16.484;102.872;2023-03-16T10:31:42;32.00;48.50
18575;DHT22;9417;16.484;102.872;2023-03-16T10:33:53;32.00;48.70
18575;DHT22;9417;16.484;102.872;2023-03-16T10:36:11;31.90;49.10
18575;DHT22;9417;16.484;102.872;2023-03-16T10:38:36;31.90;49.30
18575;DHT22;9417;16.484;102.872;2023-03-16T10:40:46;31.80;48.70
18575;DHT22;9417;16.484;102.872;2023-03-16T10:42:53;31.80;48.90
18575;DHT22;9417;16.484;102.872;2023-03-16T10:45:03;31.70;49.10
18575;DHT22;9417;16.484;102.872;2023-03-16T10:47:17;31.70;49.40
18575;DHT22;9417;16.484;102.872;2023-03-16T10:49:28;31.60;50.30
18575;DHT22;9417;16.484;102.872;2023-03-16T10:51:37;31.50;50.20
18575;DHT22;9417;16.484;102.872;2023-03-16T10:53:44;31.50;50.10
18575;DHT22;9417;16.484;102.872;2023-03-16T10:55:56;31.40;50.80
18575;DHT22;9417;16.484;102.872;2023-03-16T10:58:04;31.40;50.80
18575;DHT22;9417;16.484;102.872;2023-03-16T11:00:18;31.30;50.90
18575;DHT22;9417;16.484;102.872;2023-03-16T11:02:31;31.30;50.90
18575;DHT22;9417;16.484;102.872;2023-03-16T11:04:38;31.20;51.00
18575;DHT22;9417;16.484;102.872;2023-03-16T11:06:52;31.20;51.20
18575;DHT22;9417;16.484;102.872;2023-03-16T11:09:04;31.10;51.50
18575;DHT22;9417;16.484;102.872;2023-03-16T11:11:16;31.10;52.00
18575;DHT22;9417;16.484;102.872;2023-03-16T11:13:30;30.90;53.60
18575;DHT22;9417;16.484;102.872;2023-03-16T11:15:46;30.80;54.70
18575;DHT22;9417;16.484;102.872;2023-03-16T11:17:56;30.70;56.10
18575;DHT22;9417;16.484;102.872;2023-03-16T11:20:05;30.60;56.20
18575;DHT22;9417;16.484;102.872;2023-03-16T11:22:23;30.50;56.20
18575;DHT22;9417;16.484;102.872;2023-03-16T11:24:36;30.40;56.30
18575;DHT22;9417;16.484;102.872;2023-03-16T11:26:52;30.30;56.40
18575;DHT22;9417;16.484;102.872;2023-03-16T11:29:01;30.30;56.00
18575;DHT22;9417;16.484;102.872;2023-03-16T11:31:19;30.30;55.90
18575;DHT22;9417;16.484;102.872;2023-03-16T11:33:28;30.20;56.00
18575;DHT22;9417;16.484;102.872;2023-03-16T11:35:45;30.20;56.10
18575;DHT22;9417;16.484;102.872;2023-03-16T11:38:12;30.20;56.50
18575;DHT22;9417;16.484;102.872;2023-03-16T11:40:31;30.10;58.10
18575;DHT22;9417;16.484;102.872;2023-03-16T11:42:49;30.00;58.50
18575;DHT22;9417;16.484;102.872;2023-03-16T11:45:15;29.90;58.40
18575;DHT22;9417;16.484;102.872;2023-03-16T11:47:35;29.70;59.10
18575;DHT22;9417;16.484;102.872;2023-03-16T11:49:56;29.60;60.40
18575;DHT22;9417;16.484;102.872;2023-03-16T11:52:13;29.50;61.10
18575;DHT22;9417;16.484;102.872;2023-03-16T11:54:37;29.40;61.40
18575;DHT22;9417;16.484;102.872;2023-03-16T11:56:51;29.30;62.00
18575;DHT22;9417;16.484;102.872;2023-03-16T11:59:22;29.30;62.60
18575;DHT22;9417;16.484;102.872;2023-03-16T12:01:45;29.20;65.30
18575;DHT22;9417;16.484;102.872;2023-03-16T12:04:28;29.10;65.00
18575;DHT22;9417;16.484;102.872;2023-03-16T12:06:57;29.10;66.50
18575;DHT22;9417;16.484;102.872;2023-03-16T12:11:52;28.90;65.90
18575;DHT22;9417;16.484;102.872;2023-03-16T12:14:16;28.90;66.30
18575;DHT22;9417;16.484;102.872;2023-03-16T12:16:32;28.90;67.10
18575;DHT22;9417;16.484;102.872;2023-03-16T12:19:20;28.80;67.80
18575;DHT22;9417;16.484;102.872;2023-03-16T12:21:40;28.80;67.90
18575;DHT22;9417;16.484;102.872;2023-03-16T12:24:03;28.70;67.70
18575;DHT22;9417;16.484;102.872;2023-03-16T12:26:26;28.70;67.90
18575;DHT22;9417;16.484;102.872;2023-03-16T12:29:16;28.60;67.30
18575;DHT22;9417;16.484;102.872;2023-03-16T12:31:45;28.50;68.10
18575;DHT22;9417;16.484;102.872;2023-03-16T12:34:16;28.50;68.70
18575;DHT22;9417;16.484;102.872;2023-03-16T12:36:59;28.50;69.20
18575;DHT22;9417;16.484;102.872;2023-03-16T12:39:30;28.40;69.80
18575;DHT22;9417;16.484;102.872;2023-03-16T12:41:47;28.40;70.10
18575;DHT22;9417;16.484;102.872;2023-03-16T12:44:13;28.30;70.20
18575;DHT22;9417;16.484;102.872;2023-03-16T12:46:29;28.30;70.30
18575;DHT22;9417;16.484;102.872;2023-03-16T12:48:54;28.30;70.90
18575;DHT22;9417;16.484;102.872;2023-03-16T12:51:04;28.30;71.60
18575;DHT22;9417;16.484;102.872;2023-03-16T12:53:27;28.30;71.40
18575;DHT22;9417;16.484;102.872;2023-03-16T12:55:43;28.20;71.70
18575;DHT22;9417;16.484;102.872;2023-03-16T12:57:58;28.20;71.30
18575;DHT22;9417;16.484;102.872;2023-03-16T13:00:08;28.20;71.10
18575;DHT22;9417;16.484;102.872;2023-03-16T13:02:19;28.20;71.20
18575;DHT22;9417;16.484;102.872;2023-03-16T13:04:31;28.10;71.60
18575;DHT22;9417;16.484;102.872;2023-03-16T13:06:44;28.00;71.50
18575;DHT22;9417;16.484;102.872;2023-03-16T13:09:00;27.90;71.70
18575;DHT22;9417;16.484;102.872;2023-03-16T13:11:26;27.90;72.20
18575;DHT22;9417;16.484;102.872;2023-03-16T13:13:34;27.90;72.20
18575;DHT22;9417;16.484;102.872;2023-03-16T13:16:02;27.90;72.30
18575;DHT22;9417;16.484;102.872;2023-03-16T13:18:23;27.70;73.00
18575;DHT22;9417;16.484;102.872;2023-03-16T13:20:49;27.70;73.20
18575;DHT22;9417;16.484;102.872;2023-03-16T13:23:21;27.70;73.60
18575;DHT22;9417;16.484;102.872;2023-03-16T13:25:41;27.60;73.80
18575;DHT22;9417;16.484;102.872;2023-03-16T13:27:51;27.60;73.30
18575;DHT22;9417;16.484;102.872;2023-03-16T13:30:00;27.50;73.50
18575;DHT22;9417;16.484;102.872;2023-03-16T13:32:16;27.50;73.20
18575;DHT22;9417;16.484;102.872;2023-03-16T13:34:28;27.40;74.30
18575;DHT22;9417;16.484;102.872;2023-03-16T13:36:35;27.40;74.30
18575;DHT22;9417;16.484;102.872;2023-03-16T13:38:43;27.40;74.10
18575;DHT22;9417;16.484;102.872;2023-03-16T13:41:08;27.30;73.90
18575;DHT22;9417;16.484;102.872;2023-03-16T13:43:18;27.30;74.10
18575;DHT22;9417;16.484;102.872;2023-03-16T13:45:30;27.30;73.90